sensor_id;sensor_type;location;lat;lon;timestamp;temperature;humidity
69715;HTU21D;56981;53.532;49.398;2023-04-15T00:00:06;-2.01;35.40
69715;HTU21D;56981;53.532;49.398;2023-04-15T00:02:32;-2.03;35.66
69715;HTU21D;56981;53.532;49.398;2023-04-15T00:04:58;-2.06;35.71
69715;HTU21D;56981;53.532;49.398;2023-04-15T00:07:24;-2.06;35.81
69715;HTU21D;56981;53.532;49.398;2023-04-15T00:09:50;-2.10;35.83
69715;HTU21D;56981;53.532;49.398;2023-04-15T00:12:20;-2.14;35.91
69715;HTU21D;56981;53.532;49.398;2023-04-15T00:14:49;-2.18;36.06
69715;HTU21D;56981;53.532;49.398;2023-04-15T00:17:16;-2.19;36.05
69715;HTU21D;56981;53.532;49.398;2023-04-15T00:19:42;-2.23;36.18
69715;HTU21D;56981;53.532;49.398;2023-04-15T00:22:11;-2.24;36.38
69715;HTU21D;56981;53.532;49.398;2023-04-15T00:24:38;-2.28;36.28
69715;HTU21D;56981;53.532;49.398;2023-04-15T00:27:04;-2.31;36.64
69715;HTU21D;56981;53.532;49.398;2023-04-15T00:29:30;-2.33;36.71
69715;HTU21D;56981;53.532;49.398;2023-04-15T00:31:56;-2.37;36.69
69715;HTU21D;56981;53.532;49.398;2023-04-15T00:34:22;-2.42;37.02
69715;HTU21D;56981;53.532;49.398;2023-04-15T00:36:49;-2.43;37.23
69715;HTU21D;56981;53.532;49.398;2023-04-15T00:39:16;-2.46;37.30
69715;HTU21D;56981;53.532;49.398;2023-04-15T00:41:43;-2.49;37.51
69715;HTU21D;56981;53.532;49.398;2023-04-15T00:44:09;-2.53;37.42
69715;HTU21D;56981;53.532;49.398;2023-04-15T00:46:37;-2.57;37.75
69715;HTU21D;56981;53.532;49.398;2023-04-15T00:49:04;-2.59;37.63
69715;HTU21D;56981;53.532;49.398;2023-04-15T00:51:31;-2.61;37.85
69715;HTU21D;56981;53.532;49.398;2023-04-15T00:53:59;-2.64;38.05
69715;HTU21D;56981;53.532;49.398;2023-04-15T00:56:25;-2.65;38.01
69715;HTU21D;56981;53.532;49.398;2023-04-15T00:58:53;-2.68;38.11
69715;HTU21D;56981;53.532;49.398;2023-04-15T01:01:20;-2.71;38.29
69715;HTU21D;56981;53.532;49.398;2023-04-15T01:03:48;-2.75;38.60
69715;HTU21D;56981;53.532;49.398;2023-04-15T01:06:15;-2.80;38.49
69715;HTU21D;56981;53.532;49.398;2023-04-15T01:08:42;-2.83;38.56
69715;HTU21D;56981;53.532;49.398;2023-04-15T01:11:09;-2.86;38.76
69715;HTU21D;56981;53.532;49.398;2023-04-15T01:13:37;-2.88;38.77
69715;HTU21D;56981;53.532;49.398;2023-04-15T01:16:03;-2.91;38.88
69715;HTU21D;56981;53.532;49.398;2023-04-15T01:18:30;-2.94;38.79
69715;HTU21D;56981;53.532;49.398;2023-04-15T01:20:56;-2.95;39.00
69715;HTU21D;56981;53.532;49.398;2023-04-15T01:23:23;-3.00;39.24
69715;HTU21D;56981;53.532;49.398;2023-04-15T01:25:49;-3.02;39.37
69715;HTU21D;56981;53.532;49.398;2023-04-15T01:28:16;-3.03;39.32
69715;HTU21D;56981;53.532;49.398;2023-04-15T01:30:42;-3.04;39.47
69715;HTU21D;56981;53.532;49.398;2023-04-15T01:33:09;-3.06;39.58
69715;HTU21D;56981;53.532;49.398;2023-04-15T01:35:35;-3.08;39.65
69715;HTU21D;56981;53.532;49.398;2023-04-15T01:38:06;-3.09;39.98
69715;HTU21D;56981;53.532;49.398;2023-04-15T01:40:33;-3.12;39.82
69715;HTU21D;56981;53.532;49.398;2023-04-15T01:43:00;-3.15;40.00
69715;HTU21D;56981;53.532;49.398;2023-04-15T01:45:27;-3.15;40.13
69715;HTU21D;56981;53.532;49.398;2023-04-15T01:47:53;-3.12;40.06
69715;HTU21D;56981;53.532;49.398;2023-04-15T01:50:19;-3.12;40.15
69715;HTU21D;56981;53.532;49.398;2023-04-15T01:52:46;-3.11;40.15
69715;HTU21D;56981;53.532;49.398;2023-04-15T01:55:16;-3.10;40.01
69715;HTU21D;56981;53.532;49.398;2023-04-15T01:57:42;-2.93;39.71
69715;HTU21D;56981;53.532;49.398;2023-04-15T02:00:08;-2.63;39.14
69715;HTU21D;56981;53.532;49.398;2023-04-15T02:02:34;-2.15;37.73
69715;HTU21D;56981;53.532;49.398;2023-04-15T02:05:00;-1.46;36.21
69715;HTU21D;56981;53.532;49.398;2023-04-15T02:07:26;-0.85;34.65
69715;HTU21D;56981;53.532;49.398;2023-04-15T02:09:53;-0.09;33.20
69715;HTU21D;56981;53.532;49.398;2023-04-15T02:12:19;0.30;31.93
69715;HTU21D;56981;53.532;49.398;2023-04-15T02:14:45;0.68;31.03
69715;HTU21D;56981;53.532;49.398;2023-04-15T02:17:11;1.26;29.97
69715;HTU21D;56981;53.532;49.398;2023-04-15T02:19:37;1.83;28.70
69715;HTU21D;56981;53.532;49.398;2023-04-15T02:22:05;2.21;28.00
69715;HTU21D;56981;53.532;49.398;2023-04-15T02:24:34;2.51;27.47
69715;HTU21D;56981;53.532;49.398;2023-04-15T02:27:00;2.56;27.28
69715;HTU21D;56981;53.532;49.398;2023-04-15T02:29:26;2.81;26.91
69715;HTU21D;56981;53.532;49.398;2023-04-15T02:31:52;2.65;27.33
69715;HTU21D;56981;53.532;49.398;2023-04-15T02:34:18;3.06;26.54
69715;HTU21D;56981;53.532;49.398;2023-04-15T02:36:44;3.89;25.07
69715;HTU21D;56981;53.532;49.398;2023-04-15T02:39:13;4.12;24.74
69715;HTU21D;56981;53.532;49.398;2023-04-15T02:41:41;4.50;24.25
69715;HTU21D;56981;53.532;49.398;2023-04-15T02:44:08;4.61;23.71
69715;HTU21D;56981;53.532;49.398;2023-04-15T02:46:34;4.87;23.14
69715;HTU21D;56981;53.532;49.398;2023-04-15T02:49:01;5.06;23.18
69715;HTU21D;56981;53.532;49.398;2023-04-15T02:51:29;5.43;22.49
69715;HTU21D;56981;53.532;49.398;2023-04-15T02:53:56;5.72;21.90
69715;HTU21D;56981;53.532;49.398;2023-04-15T02:56:23;6.20;21.37
69715;HTU21D;56981;53.532;49.398;2023-04-15T02:58:49;5.64;22.01
69715;HTU21D;56981;53.532;49.398;2023-04-15T03:01:21;5.46;22.08
69715;HTU21D;56981;53.532;49.398;2023-04-15T03:03:47;5.52;22.05
69715;HTU21D;56981;53.532;49.398;2023-04-15T03:06:13;6.22;21.18
69715;HTU21D;56981;53.532;49.398;2023-04-15T03:08:39;6.45;20.56
69715;HTU21D;56981;53.532;49.398;2023-04-15T03:11:05;6.05;21.50
69715;HTU21D;56981;53.532;49.398;2023-04-15T03:13:32;6.28;21.05
69715;HTU21D;56981;53.532;49.398;2023-04-15T03:15:58;6.75;20.25
69715;HTU21D;56981;53.532;49.398;2023-04-15T03:18:25;6.90;20.22
69715;HTU21D;56981;53.532;49.398;2023-04-15T03:20:51;7.39;19.20
69715;HTU21D;56981;53.532;49.398;2023-04-15T03:23:17;7.53;19.17
69715;HTU21D;56981;53.532;49.398;2023-04-15T03:25:43;7.38;19.02
69715;HTU21D;56981;53.532;49.398;2023-04-15T03:28:09;7.58;18.86
69715;HTU21D;56981;53.532;49.398;2023-04-15T03:30:35;7.98;18.28
69715;HTU21D;56981;53.532;49.398;2023-04-15T03:33:01;8.06;17.91
69715;HTU21D;56981;53.532;49.398;2023-04-15T03:35:29;8.28;18.12
69715;HTU21D;56981;53.532;49.398;2023-04-15T03:37:55;8.21;18.08
69715;HTU21D;56981;53.532;49.398;2023-04-15T03:40:21;7.83;18.16
69715;HTU21D;56981;53.532;49.398;2023-04-15T03:42:47;7.59;18.36
69715;HTU21D;56981;53.532;49.398;2023-04-15T03:45:13;7.78;18.24
69715;HTU21D;56981;53.532;49.398;2023-04-15T03:47:39;7.89;18.48
69715;HTU21D;56981;53.532;49.398;2023-04-15T03:50:06;8.22;18.01
69715;HTU21D;56981;53.532;49.398;2023-04-15T03:52:33;8.39;17.61
69715;HTU21D;56981;53.532;49.398;2023-04-15T03:54:59;8.60;17.64
69715;HTU21D;56981;53.532;49.398;2023-04-15T03:57:25;8.36;17.28
69715;HTU21D;56981;53.532;49.398;2023-04-15T03:59:51;8.29;17.65
69715;HTU21D;56981;53.532;49.398;2023-04-15T04:02:17;8.35;17.84
69715;HTU21D;56981;53.532;49.398;2023-04-15T04:04:43;8.26;17.84
69715;HTU21D;56981;53.532;49.398;2023-04-15T04:07:14;8.37;17.35
69715;HTU21D;56981;53.532;49.398;2023-04-15T04:09:41;8.03;17.72
69715;HTU21D;56981;53.532;49.398;2023-04-15T04:12:07;8.00;17.76
69715;HTU21D;56981;53.532;49.398;2023-04-15T04:14:33;7.91;17.92
69715;HTU21D;56981;53.532;49.398;2023-04-15T04:16:59;7.69;18.08
69715;HTU21D;56981;53.532;49.398;2023-04-15T04:19:26;7.98;17.83
69715;HTU21D;56981;53.532;49.398;2023-04-15T04:21:55;8.20;17.40
69715;HTU21D;56981;53.532;49.398;2023-04-15T04:24:21;8.07;17.59
69715;HTU21D;56981;53.532;49.398;2023-04-15T04:26:47;8.07;17.71
69715;HTU21D;56981;53.532;49.398;2023-04-15T04:29:13;8.61;17.13
69715;HTU21D;56981;53.532;49.398;2023-04-15T04:31:39;8.58;17.10
69715;HTU21D;56981;53.532;49.398;2023-04-15T04:34:08;7.87;17.90
69715;HTU21D;56981;53.532;49.398;2023-04-15T04:36:34;8.12;17.74
69715;HTU21D;56981;53.532;49.398;2023-04-15T04:39:00;7.98;17.77
69715;HTU21D;56981;53.532;49.398;2023-04-15T04:41:26;8.77;16.94
69715;HTU21D;56981;53.532;49.398;2023-04-15T04:43:52;8.16;17.26
69715;HTU21D;56981;53.532;49.398;2023-04-15T04:46:18;8.55;16.98
69715;HTU21D;56981;53.532;49.398;2023-04-15T04:48:44;8.96;16.72
69715;HTU21D;56981;53.532;49.398;2023-04-15T04:51:10;8.93;16.46
69715;HTU21D;56981;53.532;49.398;2023-04-15T04:53:36;9.53;15.80
69715;HTU21D;56981;53.532;49.398;2023-04-15T04:56:02;9.38;15.65
69715;HTU21D;56981;53.532;49.398;2023-04-15T04:58:28;9.44;16.09
69715;HTU21D;56981;53.532;49.398;2023-04-15T05:00:55;9.96;15.64
69715;HTU21D;56981;53.532;49.398;2023-04-15T05:03:21;9.67;15.54
69715;HTU21D;56981;53.532;49.398;2023-04-15T05:05:48;9.56;15.65
69715;HTU21D;56981;53.532;49.398;2023-04-15T05:08:14;9.33;15.98
69715;HTU21D;56981;53.532;49.398;2023-04-15T05:10:41;9.41;16.24
69715;HTU21D;56981;53.532;49.398;2023-04-15T05:13:07;9.90;15.71
69715;HTU21D;56981;53.532;49.398;2023-04-15T05:15:33;9.68;15.64
69715;HTU21D;56981;53.532;49.398;2023-04-15T05:18:01;9.83;15.41
69715;HTU21D;56981;53.532;49.398;2023-04-15T05:20:28;9.75;15.45
69715;HTU21D;56981;53.532;49.398;2023-04-15T05:22:54;9.78;15.11
69715;HTU21D;56981;53.532;49.398;2023-04-15T05:25:20;9.56;15.70
69715;HTU21D;56981;53.532;49.398;2023-04-15T05:27:46;9.59;15.87
69715;HTU21D;56981;53.532;49.398;2023-04-15T05:30:12;9.33;15.75
69715;HTU21D;56981;53.532;49.398;2023-04-15T05:32:38;8.75;16.57
69715;HTU21D;56981;53.532;49.398;2023-04-15T05:35:04;8.77;16.61
69715;HTU21D;56981;53.532;49.398;2023-04-15T05:37:31;9.21;16.35
69715;HTU21D;56981;53.532;49.398;2023-04-15T05:39:57;9.25;16.22
69715;HTU21D;56981;53.532;49.398;2023-04-15T05:42:23;8.98;16.37
69715;HTU21D;56981;53.532;49.398;2023-04-15T05:44:49;9.04;16.23
69715;HTU21D;56981;53.532;49.398;2023-04-15T05:47:15;9.06;16.78
69715;HTU21D;56981;53.532;49.398;2023-04-15T05:49:41;9.31;16.35
69715;HTU21D;56981;53.532;49.398;2023-04-15T05:52:07;9.30;16.57
69715;HTU21D;56981;53.532;49.398;2023-04-15T05:54:33;9.03;16.31
69715;HTU21D;56981;53.532;49.398;2023-04-15T05:56:59;8.93;16.19
69715;HTU21D;56981;53.532;49.398;2023-04-15T05:59:26;8.89;16.99
69715;HTU21D;56981;53.532;49.398;2023-04-15T06:01:53;9.17;16.49
69715;HTU21D;56981;53.532;49.398;2023-04-15T06:04:19;9.17;16.53
69715;HTU21D;56981;53.532;49.398;2023-04-15T06:06:46;9.56;16.35
69715;HTU21D;56981;53.532;49.398;2023-04-15T06:09:13;9.92;15.93
69715;HTU21D;56981;53.532;49.398;2023-04-15T06:11:39;10.10;15.64
69715;HTU21D;56981;53.532;49.398;2023-04-15T06:14:06;10.30;15.10
69715;HTU21D;56981;53.532;49.398;2023-04-15T06:16:32;9.70;15.18
69715;HTU21D;56981;53.532;49.398;2023-04-15T06:18:58;9.83;15.31
69715;HTU21D;56981;53.532;49.398;2023-04-15T06:21:24;9.51;15.51
69715;HTU21D;56981;53.532;49.398;2023-04-15T06:23:50;9.62;15.61
69715;HTU21D;56981;53.532;49.398;2023-04-15T06:26:16;10.36;14.78
69715;HTU21D;56981;53.532;49.398;2023-04-15T06:28:48;10.07;14.70
69715;HTU21D;56981;53.532;49.398;2023-04-15T06:31:14;9.92;14.77
69715;HTU21D;56981;53.532;49.398;2023-04-15T06:33:40;9.40;15.64
69715;HTU21D;56981;53.532;49.398;2023-04-15T06:36:06;9.60;15.29
69715;HTU21D;56981;53.532;49.398;2023-04-15T06:38:32;9.93;15.07
69715;HTU21D;56981;53.532;49.398;2023-04-15T06:40:58;9.84;14.48
69715;HTU21D;56981;53.532;49.398;2023-04-15T06:43:24;10.30;14.41
69715;HTU21D;56981;53.532;49.398;2023-04-15T06:45:50;9.98;14.23
69715;HTU21D;56981;53.532;49.398;2023-04-15T06:48:16;10.09;14.55
69715;HTU21D;56981;53.532;49.398;2023-04-15T06:50:42;10.14;14.04
69715;HTU21D;56981;53.532;49.398;2023-04-15T06:53:08;9.94;14.61
69715;HTU21D;56981;53.532;49.398;2023-04-15T06:55:35;10.00;14.14
69715;HTU21D;56981;53.532;49.398;2023-04-15T06:58:01;9.99;14.08
69715;HTU21D;56981;53.532;49.398;2023-04-15T07:00:27;9.88;13.73
69715;HTU21D;56981;53.532;49.398;2023-04-15T07:02:54;9.89;14.39
69715;HTU21D;56981;53.532;49.398;2023-04-15T07:05:22;10.06;14.37
69715;HTU21D;56981;53.532;49.398;2023-04-15T07:07:48;10.14;14.77
69715;HTU21D;56981;53.532;49.398;2023-04-15T07:10:15;10.88;13.55
69715;HTU21D;56981;53.532;49.398;2023-04-15T07:12:41;10.83;14.00
69715;HTU21D;56981;53.532;49.398;2023-04-15T07:15:07;10.37;14.59
69715;HTU21D;56981;53.532;49.398;2023-04-15T07:17:33;10.26;13.87
69715;HTU21D;56981;53.532;49.398;2023-04-15T07:20:01;10.07;13.75
69715;HTU21D;56981;53.532;49.398;2023-04-15T07:22:27;9.84;15.37
69715;HTU21D;56981;53.532;49.398;2023-04-15T07:24:54;10.05;14.35
69715;HTU21D;56981;53.532;49.398;2023-04-15T07:27:20;9.42;14.65
69715;HTU21D;56981;53.532;49.398;2023-04-15T07:29:46;9.08;15.38
69715;HTU21D;56981;53.532;49.398;2023-04-15T07:32:13;8.83;15.19
69715;HTU21D;56981;53.532;49.398;2023-04-15T07:34:39;8.67;15.25
69715;HTU21D;56981;53.532;49.398;2023-04-15T07:37:06;8.47;15.56
69715;HTU21D;56981;53.532;49.398;2023-04-15T07:39:32;8.76;15.66
69715;HTU21D;56981;53.532;49.398;2023-04-15T07:41:58;8.90;15.10
69715;HTU21D;56981;53.532;49.398;2023-04-15T07:44:27;8.83;14.45
69715;HTU21D;56981;53.532;49.398;2023-04-15T07:46:53;9.16;14.61
69715;HTU21D;56981;53.532;49.398;2023-04-15T07:49:19;9.62;14.61
69715;HTU21D;56981;53.532;49.398;2023-04-15T07:51:46;9.65;13.73
69715;HTU21D;56981;53.532;49.398;2023-04-15T07:54:14;9.97;14.29
69715;HTU21D;56981;53.532;49.398;2023-04-15T07:56:40;10.09;13.56
69715;HTU21D;56981;53.532;49.398;2023-04-15T07:59:06;9.66;13.74
69715;HTU21D;56981;53.532;49.398;2023-04-15T08:01:34;9.55;13.40
69715;HTU21D;56981;53.532;49.398;2023-04-15T08:04:01;9.46;13.83
69715;HTU21D;56981;53.532;49.398;2023-04-15T08:06:28;9.79;13.97
69715;HTU21D;56981;53.532;49.398;2023-04-15T08:08:54;9.70;13.36
69715;HTU21D;56981;53.532;49.398;2023-04-15T08:11:20;9.41;13.94
69715;HTU21D;56981;53.532;49.398;2023-04-15T08:13:48;9.48;13.50
69715;HTU21D;56981;53.532;49.398;2023-04-15T08:16:20;9.42;13.02
69715;HTU21D;56981;53.532;49.398;2023-04-15T08:18:48;9.44;12.91
69715;HTU21D;56981;53.532;49.398;2023-04-15T08:21:15;9.71;13.10
69715;HTU21D;56981;53.532;49.398;2023-04-15T08:23:44;9.81;12.93
69715;HTU21D;56981;53.532;49.398;2023-04-15T08:26:11;9.67;12.25
69715;HTU21D;56981;53.532;49.398;2023-04-15T08:28:39;9.54;12.51
69715;HTU21D;56981;53.532;49.398;2023-04-15T08:31:05;9.45;12.36
69715;HTU21D;56981;53.532;49.398;2023-04-15T08:33:32;9.53;13.20
69715;HTU21D;56981;53.532;49.398;2023-04-15T08:35:58;9.61;12.17
69715;HTU21D;56981;53.532;49.398;2023-04-15T08:38:24;9.24;12.09
69715;HTU21D;56981;53.532;49.398;2023-04-15T08:40:50;9.01;12.23
69715;HTU21D;56981;53.532;49.398;2023-04-15T08:43:32;8.81;13.16
69715;HTU21D;56981;53.532;49.398;2023-04-15T08:45:59;8.64;13.53
69715;HTU21D;56981;53.532;49.398;2023-04-15T08:48:32;8.51;13.58
69715;HTU21D;56981;53.532;49.398;2023-04-15T08:50:59;8.71;12.84
69715;HTU21D;56981;53.532;49.398;2023-04-15T08:53:28;8.77;12.96
69715;HTU21D;56981;53.532;49.398;2023-04-15T08:55:56;8.60;11.68
69715;HTU21D;56981;53.532;49.398;2023-04-15T08:58:23;8.33;12.26
69715;HTU21D;56981;53.532;49.398;2023-04-15T09:00:50;8.27;13.27
69715;HTU21D;56981;53.532;49.398;2023-04-15T09:03:19;8.29;13.13
69715;HTU21D;56981;53.532;49.398;2023-04-15T09:05:47;8.20;12.69
69715;HTU21D;56981;53.532;49.398;2023-04-15T09:08:15;7.91;12.70
69715;HTU21D;56981;53.532;49.398;2023-04-15T09:10:41;7.82;13.07
69715;HTU21D;56981;53.532;49.398;2023-04-15T09:13:08;7.65;12.98
69715;HTU21D;56981;53.532;49.398;2023-04-15T09:15:37;7.84;13.80
69715;HTU21D;56981;53.532;49.398;2023-04-15T09:18:04;7.88;12.83
69715;HTU21D;56981;53.532;49.398;2023-04-15T09:20:38;7.89;13.06
69715;HTU21D;56981;53.532;49.398;2023-04-15T09:23:13;8.04;12.59
69715;HTU21D;56981;53.532;49.398;2023-04-15T09:25:40;7.87;12.14
69715;HTU21D;56981;53.532;49.398;2023-04-15T09:28:09;7.88;12.97
69715;HTU21D;56981;53.532;49.398;2023-04-15T09:30:36;7.90;14.00
69715;HTU21D;56981;53.532;49.398;2023-04-15T09:33:03;7.73;13.64
69715;HTU21D;56981;53.532;49.398;2023-04-15T09:35:33;7.88;14.47
69715;HTU21D;56981;53.532;49.398;2023-04-15T09:38:09;7.94;13.58
69715;HTU21D;56981;53.532;49.398;2023-04-15T09:40:40;8.08;12.79
69715;HTU21D;56981;53.532;49.398;2023-04-15T09:43:08;8.13;14.03
69715;HTU21D;56981;53.532;49.398;2023-04-15T09:45:38;8.19;13.65
69715;HTU21D;56981;53.532;49.398;2023-04-15T09:48:24;8.02;12.06
69715;HTU21D;56981;53.532;49.398;2023-04-15T09:50:52;7.98;12.58
69715;HTU21D;56981;53.532;49.398;2023-04-15T09:53:23;7.93;14.07
69715;HTU21D;56981;53.532;49.398;2023-04-15T09:58:18;7.68;12.52
69715;HTU21D;56981;53.532;49.398;2023-04-15T10:00:46;0.00;14.00
69715;HTU21D;56981;53.532;49.398;2023-04-15T10:03:21;7.88;14.10
69715;HTU21D;56981;53.532;49.398;2023-04-15T10:05:50;7.76;13.55
69715;HTU21D;56981;53.532;49.398;2023-04-15T10:08:21;7.76;13.69
69715;HTU21D;56981;53.532;49.398;2023-04-15T10:10:48;7.85;12.64
69715;HTU21D;56981;53.532;49.398;2023-04-15T10:13:22;7.86;12.63
69715;HTU21D;56981;53.532;49.398;2023-04-15T10:15:57;7.86;13.13
69715;HTU21D;56981;53.532;49.398;2023-04-15T10:18:25;7.99;13.37
69715;HTU21D;56981;53.532;49.398;2023-04-15T10:20:52;8.03;13.66
69715;HTU21D;56981;53.532;49.398;2023-04-15T10:23:19;8.01;13.02
69715;HTU21D;56981;53.532;49.398;2023-04-15T10:25:47;8.12;13.68
69715;HTU21D;56981;53.532;49.398;2023-04-15T10:28:15;8.26;13.27
69715;HTU21D;56981;53.532;49.398;2023-04-15T10:30:42;8.12;13.08
69715;HTU21D;56981;53.532;49.398;2023-04-15T10:33:08;8.14;13.29
69715;HTU21D;56981;53.532;49.398;2023-04-15T10:35:36;8.01;12.74
69715;HTU21D;56981;53.532;49.398;2023-04-15T10:38:04;8.00;12.97
69715;HTU21D;56981;53.532;49.398;2023-04-15T10:40:49;0.00;13.30
69715;HTU21D;56981;53.532;49.398;2023-04-15T10:43:24;8.18;13.48
69715;HTU21D;56981;53.532;49.398;2023-04-15T10:45:52;8.14;13.11
69715;HTU21D;56981;53.532;49.398;2023-04-15T10:48:18;8.13;12.92
69715;HTU21D;56981;53.532;49.398;2023-04-15T10:50:59;8.15;13.20
69715;HTU21D;56981;53.532;49.398;2023-04-15T10:53:30;8.19;12.87
69715;HTU21D;56981;53.532;49.398;2023-04-15T10:55:57;8.28;13.00
69715;HTU21D;56981;53.532;49.398;2023-04-15T10:58:24;8.31;11.63
69715;HTU21D;56981;53.532;49.398;2023-04-15T11:00:52;8.23;11.90
69715;HTU21D;56981;53.532;49.398;2023-04-15T11:03:39;8.22;11.21
69715;HTU21D;56981;53.532;49.398;2023-04-15T11:06:05;8.19;11.96
69715;HTU21D;56981;53.532;49.398;2023-04-15T11:08:54;8.27;12.06
69715;HTU21D;56981;53.532;49.398;2023-04-15T11:11:21;8.29;13.00
69715;HTU21D;56981;53.532;49.398;2023-04-15T11:13:49;8.26;12.83
69715;HTU21D;56981;53.532;49.398;2023-04-15T11:16:16;8.30;12.99
69715;HTU21D;56981;53.532;49.398;2023-04-15T11:18:52;8.35;12.15
69715;HTU21D;56981;53.532;49.398;2023-04-15T11:21:23;8.42;12.95
69715;HTU21D;56981;53.532;49.398;2023-04-15T11:23:50;8.38;12.23
69715;HTU21D;56981;53.532;49.398;2023-04-15T11:26:16;8.37;12.10
69715;HTU21D;56981;53.532;49.398;2023-04-15T11:28:44;8.31;12.52
69715;HTU21D;56981;53.532;49.398;2023-04-15T11:31:11;8.29;12.38
69715;HTU21D;56981;53.532;49.398;2023-04-15T11:33:45;8.29;10.85
69715;HTU21D;56981;53.532;49.398;2023-04-15T11:36:12;8.27;11.21
69715;HTU21D;56981;53.532;49.398;2023-04-15T11:38:42;8.32;11.56
69715;HTU21D;56981;53.532;49.398;2023-04-15T11:41:10;8.28;11.67
69715;HTU21D;56981;53.532;49.398;2023-04-15T11:43:36;8.34;11.72
69715;HTU21D;56981;53.532;49.398;2023-04-15T11:46:02;8.34;9.57
69715;HTU21D;56981;53.532;49.398;2023-04-15T11:48:32;8.21;9.71
69715;HTU21D;56981;53.532;49.398;2023-04-15T11:51:03;8.17;10.38
69715;HTU21D;56981;53.532;49.398;2023-04-15T11:56:20;8.28;11.74
69715;HTU21D;56981;53.532;49.398;2023-04-15T11:58:48;8.27;12.53
69715;HTU21D;56981;53.532;49.398;2023-04-15T12:01:16;8.34;12.56
69715;HTU21D;56981;53.532;49.398;2023-04-15T12:03:47;8.33;11.75
69715;HTU21D;56981;53.532;49.398;2023-04-15T12:06:23;8.24;11.67
69715;HTU21D;56981;53.532;49.398;2023-04-15T12:09:11;8.18;12.18
69715;HTU21D;56981;53.532;49.398;2023-04-15T12:11:39;8.19;12.45
69715;HTU21D;56981;53.532;49.398;2023-04-15T12:14:09;8.20;11.85
69715;HTU21D;56981;53.532;49.398;2023-04-15T12:16:47;8.29;11.54
69715;HTU21D;56981;53.532;49.398;2023-04-15T12:19:16;8.23;11.75
69715;HTU21D;56981;53.532;49.398;2023-04-15T12:21:46;8.24;11.96
69715;HTU21D;56981;53.532;49.398;2023-04-15T12:24:13;8.17;12.55
69715;HTU21D;56981;53.532;49.398;2023-04-15T12:26:47;8.16;12.64
69715;HTU21D;56981;53.532;49.398;2023-04-15T12:29:15;8.22;12.91
69715;HTU21D;56981;53.532;49.398;2023-04-15T12:34:31;8.21;13.36
69715;HTU21D;56981;53.532;49.398;2023-04-15T12:36:59;8.19;13.46
69715;HTU21D;56981;53.532;49.398;2023-04-15T12:39:27;8.28;13.50
69715;HTU21D;56981;53.532;49.398;2023-04-15T12:41:54;8.32;13.13
69715;HTU21D;56981;53.532;49.398;2023-04-15T12:44:22;8.34;12.81
69715;HTU21D;56981;53.532;49.398;2023-04-15T12:46:51;8.31;12.42
69715;HTU21D;56981;53.532;49.398;2023-04-15T12:49:19;8.21;11.77
69715;HTU21D;56981;53.532;49.398;2023-04-15T12:51:50;8.17;11.90
69715;HTU21D;56981;53.532;49.398;2023-04-15T12:54:17;8.18;12.63
69715;HTU21D;56981;53.532;49.398;2023-04-15T12:56:44;8.22;13.17
69715;HTU21D;56981;53.532;49.398;2023-04-15T12:59:11;8.20;13.46
69715;HTU21D;56981;53.532;49.398;2023-04-15T13:01:38;8.18;13.97
69715;HTU21D;56981;53.532;49.398;2023-04-15T13:04:04;8.15;14.24
69715;HTU21D;56981;53.532;49.398;2023-04-15T13:06:31;8.14;14.45
69715;HTU21D;56981;53.532;49.398;2023-04-15T13:08:59;8.18;13.87
69715;HTU21D;56981;53.532;49.398;2023-04-15T13:11:27;8.14;13.55
69715;HTU21D;56981;53.532;49.398;2023-04-15T13:13:56;8.15;13.45
69715;HTU21D;56981;53.532;49.398;2023-04-15T13:16:23;8.17;13.79
69715;HTU21D;56981;53.532;49.398;2023-04-15T13:18:49;8.12;12.87
69715;HTU21D;56981;53.532;49.398;2023-04-15T13:21:15;8.13;13.04
69715;HTU21D;56981;53.532;49.398;2023-04-15T13:23:42;8.09;12.93
69715;HTU21D;56981;53.532;49.398;2023-04-15T13:26:08;8.04;12.88
69715;HTU21D;56981;53.532;49.398;2023-04-15T13:28:34;8.08;13.14
69715;HTU21D;56981;53.532;49.398;2023-04-15T13:31:01;8.05;13.29
69715;HTU21D;56981;53.532;49.398;2023-04-15T13:33:27;8.05;13.20
69715;HTU21D;56981;53.532;49.398;2023-04-15T13:35:53;8.03;12.77
69715;HTU21D;56981;53.532;49.398;2023-04-15T13:38:19;8.04;13.05
69715;HTU21D;56981;53.532;49.398;2023-04-15T13:40:45;8.02;12.74
69715;HTU21D;56981;53.532;49.398;2023-04-15T13:43:11;7.93;12.06
69715;HTU21D;56981;53.532;49.398;2023-04-15T13:45:37;7.85;12.30
69715;HTU21D;56981;53.532;49.398;2023-04-15T13:48:04;7.83;12.41
69715;HTU21D;56981;53.532;49.398;2023-04-15T13:50:30;7.88;12.75
69715;HTU21D;56981;53.532;49.398;2023-04-15T13:52:56;7.88;12.99
69715;HTU21D;56981;53.532;49.398;2023-04-15T13:55:22;7.89;12.72
69715;HTU21D;56981;53.532;49.398;2023-04-15T13:57:48;7.85;11.95
69715;HTU21D;56981;53.532;49.398;2023-04-15T14:00:15;7.79;11.87
69715;HTU21D;56981;53.532;49.398;2023-04-15T14:02:42;7.78;11.84
69715;HTU21D;56981;53.532;49.398;2023-04-15T14:05:09;7.76;12.14
69715;HTU21D;56981;53.532;49.398;2023-04-15T14:07:35;7.74;12.20
69715;HTU21D;56981;53.532;49.398;2023-04-15T14:10:02;7.71;11.91
69715;HTU21D;56981;53.532;49.398;2023-04-15T14:12:28;7.71;12.24
69715;HTU21D;56981;53.532;49.398;2023-04-15T14:14:54;7.71;12.07
69715;HTU21D;56981;53.532;49.398;2023-04-15T14:17:20;7.65;12.20
69715;HTU21D;56981;53.532;49.398;2023-04-15T14:19:46;7.63;12.65
69715;HTU21D;56981;53.532;49.398;2023-04-15T14:22:12;7.62;12.33
69715;HTU21D;56981;53.532;49.398;2023-04-15T14:24:39;7.57;12.28
69715;HTU21D;56981;53.532;49.398;2023-04-15T14:27:05;7.54;12.32
69715;HTU21D;56981;53.532;49.398;2023-04-15T14:29:33;7.53;12.69
69715;HTU21D;56981;53.532;49.398;2023-04-15T14:31:59;7.50;12.83
69715;HTU21D;56981;53.532;49.398;2023-04-15T14:34:25;7.46;12.87
69715;HTU21D;56981;53.532;49.398;2023-04-15T14:36:51;7.43;12.80
69715;HTU21D;56981;53.532;49.398;2023-04-15T14:39:18;7.39;12.40
69715;HTU21D;56981;53.532;49.398;2023-04-15T14:41:45;7.33;12.69
69715;HTU21D;56981;53.532;49.398;2023-04-15T14:44:11;7.32;13.04
69715;HTU21D;56981;53.532;49.398;2023-04-15T14:46:37;7.28;13.36
69715;HTU21D;56981;53.532;49.398;2023-04-15T14:49:05;7.26;13.44
69715;HTU21D;56981;53.532;49.398;2023-04-15T14:51:31;7.20;13.37
69715;HTU21D;56981;53.532;49.398;2023-04-15T14:53:57;7.15;13.35
69715;HTU21D;56981;53.532;49.398;2023-04-15T14:56:23;7.14;13.26
69715;HTU21D;56981;53.532;49.398;2023-04-15T14:58:49;7.12;13.33
69715;HTU21D;56981;53.532;49.398;2023-04-15T15:01:19;7.08;13.42
69715;HTU21D;56981;53.532;49.398;2023-04-15T15:03:45;7.03;13.56
69715;HTU21D;56981;53.532;49.398;2023-04-15T15:06:11;7.00;13.51
69715;HTU21D;56981;53.532;49.398;2023-04-15T15:08:37;6.98;14.00
69715;HTU21D;56981;53.532;49.398;2023-04-15T15:11:03;6.90;14.09
69715;HTU21D;56981;53.532;49.398;2023-04-15T15:13:29;6.87;14.24
69715;HTU21D;56981;53.532;49.398;2023-04-15T15:15:56;6.80;14.42
69715;HTU21D;56981;53.532;49.398;2023-04-15T15:18:22;6.75;14.92
69715;HTU21D;56981;53.532;49.398;2023-04-15T15:20:50;6.69;14.97